createdAt,value
2018-05-13T00:00:25.435Z,16.40
2018-05-13T00:05:24.499Z,16.40
2018-05-13T00:07:53.715Z,16.40
2018-05-13T00:10:21.273Z,16.30
2018-05-13T00:12:49.594Z,16.30
2018-05-13T00:15:17.225Z,16.30
2018-05-13T00:17:44.750Z,16.40
2018-05-13T00:20:12.316Z,16.40
2018-05-13T00:22:40.604Z,16.30
2018-05-13T00:25:09.012Z,16.20
2018-05-13T00:27:37.106Z,16.20
2018-05-13T00:30:04.704Z,16.20
2018-05-13T00:32:32.309Z,16.10
2018-05-13T00:34:59.864Z,16.10
2018-05-13T00:37:27.387Z,16.10
2018-05-13T00:39:55.676Z,16.00
2018-05-13T00:42:23.241Z,16.00
2018-05-13T00:44:50.943Z,16.00
2018-05-13T00:47:18.520Z,15.90
2018-05-13T00:49:46.403Z,15.80
2018-05-13T00:52:26.598Z,15.70
2018-05-13T01:08:10.999Z,15.30
2018-05-13T01:10:39.278Z,15.40
2018-05-13T01:13:07.566Z,15.40
2018-05-13T01:15:35.106Z,15.30
2018-05-13T01:18:02.626Z,15.40
2018-05-13T01:20:30.164Z,15.40
2018-05-13T01:22:57.716Z,15.30
2018-05-13T01:25:25.243Z,15.30
2018-05-13T01:27:53.544Z,15.20
2018-05-13T01:30:21.585Z,15.20
2018-05-13T01:32:49.909Z,15.10
2018-05-13T01:35:17.885Z,15.10
2018-05-13T01:37:45.419Z,15.10
2018-05-13T01:40:14.498Z,14.90
2018-05-13T01:42:42.786Z,14.90
2018-05-13T01:45:10.399Z,14.90
2018-05-13T01:47:38.718Z,14.90
2018-05-13T01:50:06.258Z,14.80
2018-05-13T01:52:35.294Z,14.80
2018-05-13T01:55:02.830Z,14.80
2018-05-13T01:57:30.490Z,14.80
2018-05-13T01:59:58.047Z,14.70
2018-05-13T02:02:25.576Z,14.60
2018-05-13T02:04:53.103Z,14.60
2018-05-13T02:07:20.655Z,14.70
2018-05-13T02:09:48.891Z,14.60
2018-05-13T02:12:16.496Z,14.60
2018-05-13T02:14:44.550Z,14.50
2018-05-13T02:17:12.135Z,14.50
2018-05-13T02:19:39.679Z,14.40
2018-05-13T02:22:07.241Z,14.40
2018-05-13T02:24:34.764Z,14.50
2018-05-13T02:27:03.164Z,14.50
2018-05-13T02:29:30.717Z,14.50
2018-05-13T02:31:58.239Z,14.60
2018-05-13T02:34:26.530Z,14.50
2018-05-13T02:36:54.543Z,14.50
2018-05-13T02:39:22.067Z,14.50
2018-05-13T02:41:49.590Z,14.50
2018-05-13T02:44:17.155Z,14.60
2018-05-13T02:46:44.687Z,14.60
2018-05-13T02:49:12.199Z,14.70
2018-05-13T02:51:39.757Z,14.70
2018-05-13T02:54:07.275Z,14.70
2018-05-13T02:56:34.816Z,14.70
2018-05-13T02:59:02.636Z,14.60
2018-05-13T03:01:30.155Z,14.60
2018-05-13T03:03:57.679Z,14.50
2018-05-13T03:06:25.234Z,14.40
2018-05-13T03:08:52.778Z,14.40
2018-05-13T03:11:20.765Z,14.30
2018-05-13T03:13:48.318Z,14.40
2018-05-13T03:16:17.914Z,14.40
2018-05-13T03:18:45.435Z,14.40
2018-05-13T03:21:15.836Z,14.30
2018-05-13T03:23:43.366Z,14.30
2018-05-13T03:26:10.885Z,14.30
2018-05-13T03:28:38.439Z,14.30
2018-05-13T03:31:05.960Z,14.20
2018-05-13T03:33:33.475Z,14.20
2018-05-13T03:36:01.794Z,14.10
2018-05-13T03:38:29.308Z,14.10
2018-05-13T03:40:57.605Z,14.00
2018-05-13T03:43:25.495Z,14.00
2018-05-13T03:45:53.039Z,14.00
2018-05-13T03:48:20.556Z,14.10
2018-05-13T03:50:48.878Z,14.00
2018-05-13T03:53:17.760Z,14.00
2018-05-13T03:55:45.290Z,14.00
2018-05-13T03:58:13.782Z,13.90
2018-05-13T04:00:41.310Z,13.80
2018-05-13T04:03:08.839Z,13.70
2018-05-13T04:05:36.992Z,13.70
2018-05-13T04:21:43.978Z,13.60
2018-05-13T04:24:11.495Z,13.60
2018-05-13T04:26:39.023Z,13.60
2018-05-13T04:29:07.338Z,13.70
2018-05-13T04:31:34.855Z,13.70
2018-05-13T04:34:02.393Z,13.70
2018-05-13T04:36:30.714Z,13.90
2018-05-13T04:38:59.021Z,13.80
2018-05-13T04:41:26.571Z,13.80
2018-05-13T04:43:54.527Z,13.70
2018-05-13T04:46:22.077Z,13.80
2018-05-13T04:48:49.624Z,13.90
2018-05-13T04:51:18.023Z,14.00
2018-05-13T04:53:45.665Z,14.00
2018-05-13T04:56:25.654Z,14.20
2018-05-13T05:07:44.126Z,14.20
2018-05-13T05:10:11.698Z,14.30
2018-05-13T05:12:39.304Z,14.40
2018-05-13T05:15:06.867Z,14.40
2018-05-13T05:17:34.448Z,14.40
2018-05-13T05:20:02.742Z,14.50
2018-05-13T05:22:31.777Z,14.60
2018-05-13T05:24:59.298Z,14.60
2018-05-13T05:27:27.589Z,14.60
2018-05-13T05:29:55.583Z,14.60
2018-05-13T05:32:23.189Z,14.70
2018-05-13T05:34:51.525Z,14.90
2018-05-13T05:37:19.086Z,14.80
2018-05-13T05:39:46.611Z,15.00
2018-05-13T05:42:25.983Z,15.20
2018-05-13T05:57:49.458Z,17.40
2018-05-13T06:00:16.975Z,18.90
2018-05-13T06:02:44.510Z,20.90
2018-05-13T06:05:12.071Z,22.20
2018-05-13T06:07:39.604Z,23.40
2018-05-13T06:10:08.016Z,25.60
2018-05-13T06:12:35.705Z,25.50
2018-05-13T06:15:04.108Z,27.60
2018-05-13T06:17:31.634Z,27.50
2018-05-13T06:19:59.211Z,27.80
2018-05-13T06:22:26.804Z,28.20
2018-05-13T06:24:55.922Z,29.30
2018-05-13T06:27:23.467Z,29.20
2018-05-13T06:29:51.746Z,29.40
2018-05-13T06:32:19.270Z,29.40
2018-05-13T06:34:47.298Z,29.20
2018-05-13T06:37:16.566Z,29.20
2018-05-13T06:39:44.459Z,29.30
2018-05-13T06:42:12.451Z,29.70
2018-05-13T06:44:40.765Z,28.80
2018-05-13T06:47:09.077Z,27.50
2018-05-13T06:49:36.680Z,27.40
2018-05-13T06:52:04.210Z,26.90
2018-05-13T06:54:31.762Z,27.10
2018-05-13T06:56:59.326Z,28.30
2018-05-13T06:59:26.881Z,30.00
2018-05-13T07:01:54.418Z,30.70
2018-05-13T07:04:22.505Z,31.10
2018-05-13T07:06:50.046Z,30.80
2018-05-13T07:09:17.588Z,30.60
2018-05-13T07:11:45.904Z,32.90
2018-05-13T07:14:25.328Z,33.70
2018-05-13T07:29:49.531Z,36.30
2018-05-13T07:32:17.760Z,36.50
2018-05-13T07:34:45.291Z,37.10
2018-05-13T07:37:25.972Z,38.30
2018-05-13T07:42:43.445Z,39.10
2018-05-13T07:45:10.979Z,39.80
2018-05-13T07:47:38.525Z,40.60
2018-05-13T07:50:06.427Z,41.00
2018-05-13T07:52:34.040Z,41.50
2018-05-13T07:55:01.559Z,40.30
2018-05-13T07:57:29.102Z,39.50
2018-05-13T07:59:56.627Z,39.90
2018-05-13T08:02:24.159Z,40.40
2018-05-13T08:04:51.713Z,40.90
2018-05-13T08:07:19.258Z,41.50
2018-05-13T08:09:46.819Z,42.20
2018-05-13T08:12:17.019Z,42.30
2018-05-13T08:14:44.531Z,42.20
2018-05-13T08:17:14.842Z,40.80
2018-05-13T08:19:42.350Z,40.80
2018-05-13T08:22:09.915Z,40.60
2018-05-13T08:24:37.455Z,40.30
2018-05-13T08:27:05.125Z,41.30
2018-05-13T08:29:32.646Z,41.30
2018-05-13T08:32:00.647Z,41.10
2018-05-13T08:34:28.603Z,41.90
2018-05-13T08:36:57.011Z,42.20
2018-05-13T08:39:24.551Z,42.20
2018-05-13T08:41:52.113Z,42.90
2018-05-13T08:44:19.648Z,43.50
2018-05-13T08:46:47.158Z,43.80
2018-05-13T08:49:16.492Z,44.00
2018-05-13T08:51:44.800Z,43.70
2018-05-13T08:54:12.333Z,43.70
2018-05-13T08:56:39.911Z,43.10
2018-05-13T08:59:08.537Z,42.20
2018-05-13T09:01:36.100Z,42.20
2018-05-13T09:04:03.905Z,42.50
2018-05-13T09:06:31.501Z,43.50
2018-05-13T09:08:59.170Z,44.50
2018-05-13T09:11:26.743Z,45.20
2018-05-13T09:13:54.272Z,44.50
2018-05-13T09:16:21.799Z,43.80
2018-05-13T09:18:49.420Z,43.50
2018-05-13T09:21:16.954Z,43.70
2018-05-13T09:23:44.560Z,44.30
2018-05-13T09:26:13.744Z,43.20
2018-05-13T09:28:41.295Z,43.20
2018-05-13T09:31:08.851Z,42.90
2018-05-13T09:33:36.703Z,42.90
2018-05-13T09:36:04.281Z,43.60
2018-05-13T09:38:31.888Z,43.40
2018-05-13T09:41:00.487Z,44.50
2018-05-13T09:43:28.004Z,44.50
2018-05-13T09:45:55.553Z,44.30
2018-05-13T09:48:23.139Z,43.60
2018-05-13T09:50:51.440Z,40.90
2018-05-13T09:55:48.632Z,40.00
2018-05-13T09:58:17.838Z,40.00
2018-05-13T10:00:45.363Z,40.30
2018-05-13T10:03:24.824Z,40.00
2018-05-13T10:19:25.747Z,31.40
2018-05-13T10:21:53.250Z,31.30
2018-05-13T10:24:20.791Z,30.30
2018-05-13T10:26:48.343Z,29.50
2018-05-13T10:29:16.406Z,28.90
2018-05-13T10:31:43.927Z,28.10
2018-05-13T10:34:12.460Z,27.60
2018-05-13T10:36:40.745Z,26.50
2018-05-13T10:39:08.619Z,26.50
2018-05-13T10:41:36.881Z,26.20
2018-05-13T10:44:04.407Z,26.00
2018-05-13T10:46:31.935Z,26.10
2018-05-13T10:48:59.471Z,26.40
2018-05-13T10:51:27.765Z,26.70
2018-05-13T10:53:56.105Z,26.80
2018-05-13T10:56:23.708Z,26.80
2018-05-13T10:58:51.991Z,26.50
2018-05-13T11:01:19.550Z,26.50
2018-05-13T11:03:47.235Z,26.50
2018-05-13T11:06:15.574Z,26.60
2018-05-13T11:08:43.864Z,27.00
2018-05-13T11:11:11.402Z,26.90
2018-05-13T11:13:39.707Z,27.20
2018-05-13T11:16:07.230Z,27.20
2018-05-13T11:18:34.791Z,27.30
2018-05-13T11:21:02.317Z,27.30
2018-05-13T11:23:29.835Z,27.50
2018-05-13T11:25:57.407Z,27.60
2018-05-13T11:28:24.930Z,27.60
2018-05-13T11:30:53.252Z,27.80
2018-05-13T11:33:20.799Z,27.70
2018-05-13T11:35:48.907Z,27.90
2018-05-13T11:38:16.490Z,27.80
2018-05-13T11:40:44.051Z,27.70
2018-05-13T11:43:11.578Z,27.70
2018-05-13T11:45:39.375Z,27.50
2018-05-13T11:48:07.484Z,27.50
2018-05-13T11:50:35.003Z,27.60
2018-05-13T11:53:02.648Z,27.60
2018-05-13T11:55:30.192Z,27.70
2018-05-13T11:57:57.715Z,27.40
2018-05-13T12:00:25.239Z,27.40
2018-05-13T12:02:52.787Z,27.40
2018-05-13T12:05:20.311Z,27.60
2018-05-13T12:07:47.828Z,27.60
2018-05-13T12:10:16.855Z,27.70
2018-05-13T12:12:44.367Z,27.70
2018-05-13T12:15:12.759Z,27.70
2018-05-13T12:17:40.228Z,27.70
2018-05-13T12:20:07.735Z,27.60
2018-05-13T12:22:35.264Z,27.50
2018-05-13T12:25:03.740Z,27.30
2018-05-13T12:27:31.265Z,27.30
2018-05-13T12:29:58.779Z,27.40
2018-05-13T12:32:26.831Z,27.50
2018-05-13T12:34:54.348Z,27.60
2018-05-13T12:37:23.074Z,27.40
2018-05-13T12:39:50.627Z,27.40
2018-05-13T12:42:18.152Z,27.50
2018-05-13T12:44:46.448Z,27.30
2018-05-13T12:47:26.524Z,27.20
2018-05-13T12:53:00.771Z,27.20
2018-05-13T12:55:28.303Z,27.20
2018-05-13T12:57:55.823Z,27.40
2018-05-13T13:00:23.372Z,27.60
2018-05-13T13:02:50.896Z,27.60
2018-05-13T13:05:18.405Z,27.70
2018-05-13T13:07:46.812Z,27.80
2018-05-13T13:10:16.363Z,27.70
2018-05-13T13:12:43.875Z,27.70
2018-05-13T13:15:11.814Z,27.60
2018-05-13T13:17:39.431Z,27.60
2018-05-13T13:20:07.057Z,27.80
2018-05-13T13:22:34.522Z,28.00
2018-05-13T13:25:04.421Z,28.00
2018-05-13T13:27:32.695Z,28.20
2018-05-13T13:30:00.230Z,28.20
2018-05-13T13:32:27.760Z,28.10
2018-05-13T13:34:55.340Z,28.00
2018-05-13T13:37:23.691Z,28.00
2018-05-13T13:39:51.820Z,27.80
2018-05-13T13:42:19.367Z,27.70
2018-05-13T13:44:47.722Z,27.90
2018-05-13T13:47:15.498Z,27.90
2018-05-13T13:49:43.000Z,28.10
2018-05-13T13:52:10.542Z,27.80
2018-05-13T13:54:38.059Z,28.00
2018-05-13T13:57:05.587Z,28.10
2018-05-13T13:59:33.695Z,27.90
2018-05-13T14:02:01.266Z,27.90
2018-05-13T14:04:28.806Z,27.50
2018-05-13T14:06:56.435Z,27.40
2018-05-13T14:09:23.907Z,27.50
2018-05-13T14:11:51.442Z,27.70
2018-05-13T14:14:18.988Z,27.50
2018-05-13T14:16:46.502Z,27.50
2018-05-13T14:19:25.802Z,27.70
2018-05-13T14:24:28.448Z,27.80
2018-05-13T14:26:55.998Z,27.90
2018-05-13T14:29:23.520Z,27.90
2018-05-13T14:31:51.071Z,27.90
2018-05-13T14:34:18.595Z,28.00
2018-05-13T14:36:46.896Z,27.90
2018-05-13T14:39:27.167Z,28.00
2018-05-13T14:44:40.515Z,28.10
2018-05-13T14:47:08.043Z,28.10
2018-05-13T14:49:35.599Z,28.00
2018-05-13T14:52:03.177Z,28.00
2018-05-13T14:54:30.709Z,28.00
2018-05-13T14:56:58.244Z,28.10
2018-05-13T14:59:26.480Z,28.10
2018-05-13T15:01:53.994Z,27.90
2018-05-13T15:04:22.281Z,27.60
2018-05-13T15:06:49.827Z,27.60
2018-05-13T15:09:17.408Z,27.30
2018-05-13T15:11:45.692Z,26.90
2018-05-13T15:14:23.660Z,26.90
2018-05-13T15:16:51.195Z,26.80
2018-05-13T15:19:18.743Z,26.90
2018-05-13T15:21:46.777Z,26.90
2018-05-13T15:24:20.310Z,27.00
2018-05-13T15:33:52.863Z,27.00
2018-05-13T15:37:43.821Z,27.10
2018-05-13T15:40:12.387Z,27.00
2018-05-13T15:42:41.589Z,26.90
2018-05-13T15:45:09.830Z,26.90
2018-05-13T15:47:37.375Z,26.70
2018-05-13T15:50:04.888Z,26.60
2018-05-13T15:52:32.415Z,26.60
2018-05-13T15:55:00.830Z,26.50
2018-05-13T15:57:28.323Z,26.50
2018-05-13T15:59:55.952Z,26.40
2018-05-13T16:02:23.542Z,26.30
2018-05-13T16:04:51.131Z,26.20
2018-05-13T16:07:18.659Z,25.50
2018-05-13T16:09:46.214Z,25.00
2018-05-13T16:12:16.535Z,24.00
2018-05-13T16:14:45.351Z,23.90
2018-05-13T16:17:25.519Z,23.30
2018-05-13T16:28:48.151Z,23.20
2018-05-13T16:31:16.470Z,22.00
2018-05-13T16:33:44.007Z,21.80
2018-05-13T16:36:12.181Z,21.90
2018-05-13T16:38:39.698Z,21.80
2018-05-13T16:41:08.055Z,22.00
2018-05-13T16:43:35.627Z,22.00
2018-05-13T16:46:04.429Z,22.20
2018-05-13T16:48:32.741Z,22.30
2018-05-13T16:51:00.302Z,22.30
2018-05-13T16:53:27.823Z,22.40
2018-05-13T16:55:55.363Z,22.00
2018-05-13T16:58:23.848Z,21.90
2018-05-13T17:00:52.156Z,21.70
2018-05-13T17:03:19.687Z,21.70
2018-05-13T17:05:48.047Z,21.60
2018-05-13T17:08:16.607Z,21.60
2018-05-13T17:10:44.192Z,21.60
2018-05-13T17:13:11.791Z,21.40
2018-05-13T17:15:40.262Z,21.40
2018-05-13T17:18:08.572Z,21.50
2018-05-13T17:20:36.419Z,21.40
2018-05-13T17:23:03.933Z,21.40
2018-05-13T17:25:31.459Z,21.50
2018-05-13T17:28:00.246Z,21.50
2018-05-13T17:30:27.857Z,21.50
2018-05-13T17:32:55.427Z,21.50
2018-05-13T17:35:23.749Z,21.40
2018-05-13T17:37:52.611Z,21.40
2018-05-13T17:40:20.131Z,21.40
2018-05-13T17:42:49.032Z,20.90
2018-05-13T17:45:16.561Z,20.90
2018-05-13T17:47:44.773Z,20.80
2018-05-13T17:50:12.650Z,20.70
2018-05-13T17:52:40.187Z,20.70
2018-05-13T17:55:08.511Z,20.50
2018-05-13T17:57:36.277Z,20.40
2018-05-13T18:00:04.720Z,20.40
2018-05-13T18:02:32.255Z,20.40
2018-05-13T18:05:00.287Z,20.20
2018-05-13T18:07:27.804Z,20.00
2018-05-13T18:09:55.400Z,19.70
2018-05-13T18:12:22.988Z,19.30
2018-05-13T18:14:50.511Z,19.20
2018-05-13T18:17:18.070Z,18.90
2018-05-13T18:19:45.652Z,18.80
2018-05-13T18:22:25.794Z,18.50
2018-05-13T18:28:58.460Z,18.20
2018-05-13T18:31:26.004Z,18.00
2018-05-13T18:33:53.732Z,17.80
2018-05-13T18:36:21.300Z,17.70
2018-05-13T18:38:48.821Z,17.60
2018-05-13T18:41:16.440Z,17.60
2018-05-13T18:43:44.762Z,17.70
2018-05-13T18:46:12.299Z,17.70
2018-05-13T18:48:40.251Z,17.70
2018-05-13T18:51:09.146Z,17.70
2018-05-13T18:53:36.693Z,17.70
2018-05-13T18:56:05.020Z,17.70
2018-05-13T18:58:32.693Z,17.70
2018-05-13T19:01:00.610Z,17.70
2018-05-13T19:03:28.135Z,17.90
2018-05-13T19:05:55.680Z,17.90
2018-05-13T19:08:23.220Z,18.00
2018-05-13T19:10:50.800Z,18.10
2018-05-13T19:13:20.396Z,18.10
2018-05-13T19:15:48.092Z,18.00
2018-05-13T19:18:17.214Z,17.60
2018-05-13T19:20:45.527Z,17.80
2018-05-13T19:23:14.628Z,17.70
2018-05-13T19:25:42.178Z,17.80
2018-05-13T19:28:09.768Z,17.80
2018-05-13T19:30:37.308Z,17.80
2018-05-13T19:33:04.971Z,17.80
2018-05-13T19:35:33.614Z,17.90
2018-05-13T19:38:01.172Z,17.90
2018-05-13T19:40:28.712Z,17.90
2018-05-13T19:42:57.020Z,17.90
2018-05-13T19:45:24.653Z,17.90
2018-05-13T19:47:53.355Z,17.90
2018-05-13T19:50:21.507Z,17.80
2018-05-13T19:52:49.070Z,17.70
2018-05-13T19:55:17.347Z,17.40
2018-05-13T19:57:46.511Z,17.40
2018-05-13T20:00:15.508Z,17.30
2018-05-13T20:02:43.105Z,17.20
2018-05-13T20:05:10.643Z,17.20
2018-05-13T20:07:38.342Z,17.20
2018-05-13T20:10:05.890Z,17.30
2018-05-13T20:12:33.439Z,17.30
2018-05-13T20:15:01.771Z,17.30
2018-05-13T20:17:29.308Z,17.30
2018-05-13T20:19:57.115Z,17.40
2018-05-13T20:22:24.631Z,17.50
2018-05-13T20:24:52.160Z,17.60
2018-05-13T20:27:19.713Z,17.60
2018-05-13T20:29:47.384Z,17.70
2018-05-13T20:32:16.362Z,17.90
2018-05-13T20:34:44.683Z,17.90
2018-05-13T20:37:12.214Z,17.90
2018-05-13T20:39:40.491Z,17.90
2018-05-13T20:42:08.423Z,17.90
2018-05-13T20:44:35.941Z,17.90
2018-05-13T20:47:03.502Z,17.90
2018-05-13T20:49:31.043Z,17.80
2018-05-13T20:51:59.484Z,17.80
2018-05-13T20:54:27.042Z,17.80
2018-05-13T20:56:55.371Z,17.80
2018-05-13T20:59:22.891Z,17.80
2018-05-13T21:01:50.443Z,17.70
2018-05-13T21:04:19.298Z,17.50
2018-05-13T21:06:46.852Z,17.50
2018-05-13T21:09:25.381Z,17.30
2018-05-13T21:15:13.233Z,17.40
2018-05-13T21:17:40.747Z,17.40
2018-05-13T21:20:08.271Z,17.50
2018-05-13T21:22:36.427Z,17.60
2018-05-13T21:25:03.971Z,17.70
2018-05-13T21:27:31.504Z,17.60
2018-05-13T21:29:59.050Z,17.50
2018-05-13T21:32:26.582Z,17.30
2018-05-13T21:34:54.104Z,17.30
2018-05-13T21:37:21.646Z,17.30
2018-05-13T21:39:49.214Z,17.30
2018-05-13T21:42:16.743Z,17.10
2018-05-13T21:44:44.375Z,17.10
2018-05-13T21:47:11.903Z,17.10
2018-05-13T21:49:39.471Z,17.10
2018-05-13T21:52:07.924Z,17.10
2018-05-13T21:54:35.473Z,17.00
2018-05-13T21:57:03.001Z,17.00
2018-05-13T21:59:31.335Z,16.90
2018-05-13T22:01:58.925Z,16.90
2018-05-13T22:04:26.421Z,17.00
2018-05-13T22:06:54.531Z,17.00
2018-05-13T22:09:22.116Z,16.90
2018-05-13T22:11:49.639Z,17.00
2018-05-13T22:14:17.186Z,16.90
2018-05-13T22:16:44.726Z,16.90
2018-05-13T22:19:12.245Z,16.90
2018-05-13T22:21:39.789Z,16.90
2018-05-13T22:24:07.319Z,16.90
2018-05-13T22:26:34.856Z,16.90
2018-05-13T22:29:02.874Z,17.00
2018-05-13T22:31:30.396Z,16.90
2018-05-13T22:33:57.914Z,16.90
2018-05-13T22:36:25.494Z,16.90
2018-05-13T22:38:53.775Z,17.00
2018-05-13T22:41:21.290Z,17.00
2018-05-13T22:43:48.832Z,16.80
2018-05-13T22:46:16.504Z,16.70
2018-05-13T22:48:44.788Z,16.70
2018-05-13T22:51:12.939Z,16.70
2018-05-13T22:53:41.779Z,16.80
2018-05-13T22:56:09.303Z,16.80
2018-05-13T22:58:36.860Z,16.70
2018-05-13T23:01:04.372Z,16.70
2018-05-13T23:03:31.895Z,16.60
2018-05-13T23:06:00.210Z,16.50
2018-05-13T23:08:27.739Z,16.50
2018-05-13T23:10:55.250Z,16.40
2018-05-13T23:13:23.526Z,16.30
2018-05-13T23:15:51.060Z,16.30
2018-05-13T23:18:18.595Z,16.30
2018-05-13T23:20:46.907Z,16.30
2018-05-13T23:23:15.530Z,16.30
2018-05-13T23:25:43.063Z,16.30
2018-05-13T23:28:10.606Z,16.20
2018-05-13T23:30:38.128Z,16.10
2018-05-13T23:33:05.644Z,16.10
2018-05-13T23:35:33.646Z,16.00
2018-05-13T23:38:01.179Z,16.10
2018-05-13T23:40:28.709Z,16.10
2018-05-13T23:42:56.566Z,16.00
2018-05-13T23:45:24.103Z,16.00
2018-05-13T23:47:51.861Z,16.00
2018-05-13T23:50:20.299Z,16.10
2018-05-13T23:52:47.845Z,16.10
2018-05-13T23:55:17.619Z,16.10
2018-05-13T23:57:45.639Z,16.20
